sensor_id;sensor_type;location;lat;lon;timestamp;pressure;altitude;pressure_sealevel;temperature;humidity
28927;BME280;16038;47.692;9.400;2022-12-18T00:00:28;97590.63;;;-4.54;100.00
28927;BME280;16038;47.692;9.400;2022-12-18T00:02:55;97600.38;;;-4.65;100.00
28927;BME280;16038;47.692;9.400;2022-12-18T00:05:21;97594.59;;;-4.56;100.00
28927;BME280;16038;47.692;9.400;2022-12-18T00:07:46;97595.72;;;-4.52;100.00
28927;BME280;16038;47.692;9.400;2022-12-18T00:10:11;97604.38;;;-4.45;100.00
28927;BME280;16038;47.692;9.400;2022-12-18T00:12:37;97601.13;;;-4.47;100.00
28927;BME280;16038;47.692;9.400;2022-12-18T00:15:03;97594.91;;;-4.53;100.00
28927;BME280;16038;47.692;9.400;2022-12-18T00:17:28;97604.06;;;-4.49;100.00
28927;BME280;16038;47.692;9.400;2022-12-18T00:19:56;97603.97;;;-4.37;100.00
28927;BME280;16038;47.692;9.400;2022-12-18T00:22:22;97611.34;;;-4.44;100.00
28927;BME280;16038;47.692;9.400;2022-12-18T00:24:47;97606.72;;;-4.49;100.00
28927;BME280;16038;47.692;9.400;2022-12-18T00:27:13;97608.38;;;-5.04;100.00
28927;BME280;16038;47.692;9.400;2022-12-18T00:29:40;97608.28;;;-5.26;100.00
28927;BME280;16038;47.692;9.400;2022-12-18T00:32:05;97616.88;;;-5.24;100.00
28927;BME280;16038;47.692;9.400;2022-12-18T00:34:30;97614.75;;;-5.05;100.00
28927;BME280;16038;47.692;9.400;2022-12-18T00:36:56;97615.88;;;-5.01;100.00
28927;BME280;16038;47.692;9.400;2022-12-18T00:39:21;97614.16;;;-4.73;100.00
28927;BME280;16038;47.692;9.400;2022-12-18T00:41:47;97615.63;;;-4.82;100.00
28927;BME280;16038;47.692;9.400;2022-12-18T00:44:31;97618.94;;;-4.75;100.00
28927;BME280;16038;47.692;9.400;2022-12-18T00:46:56;97624.84;;;-4.90;100.00
28927;BME280;16038;47.692;9.400;2022-12-18T00:49:21;97632.56;;;-4.76;100.00
28927;BME280;16038;47.692;9.400;2022-12-18T00:51:47;97627.84;;;-4.69;100.00
28927;BME280;16038;47.692;9.400;2022-12-18T00:54:13;97620.84;;;-4.53;100.00
28927;BME280;16038;47.692;9.400;2022-12-18T00:56:39;97632.50;;;-4.43;100.00
28927;BME280;16038;47.692;9.400;2022-12-18T00:59:04;97630.63;;;-4.42;100.00
28927;BME280;16038;47.692;9.400;2022-12-18T01:01:30;97631.09;;;-4.28;100.00
28927;BME280;16038;47.692;9.400;2022-12-18T01:03:56;97626.47;;;-4.33;100.00
28927;BME280;16038;47.692;9.400;2022-12-18T01:06:22;97634.19;;;-4.36;100.00
28927;BME280;16038;47.692;9.400;2022-12-18T01:08:47;97631.56;;;-4.70;100.00
28927;BME280;16038;47.692;9.400;2022-12-18T01:11:15;97643.63;;;-5.19;100.00
28927;BME280;16038;47.692;9.400;2022-12-18T01:13:42;97641.78;;;-5.18;100.00
28927;BME280;16038;47.692;9.400;2022-12-18T01:16:08;97644.72;;;-5.20;100.00
28927;BME280;16038;47.692;9.400;2022-12-18T01:18:36;97645.91;;;-5.27;100.00
28927;BME280;16038;47.692;9.400;2022-12-18T01:21:06;97654.09;;;-5.17;100.00
28927;BME280;16038;47.692;9.400;2022-12-18T01:23:31;97658.63;;;-5.01;100.00
28927;BME280;16038;47.692;9.400;2022-12-18T01:25:57;97665.19;;;-4.74;100.00
28927;BME280;16038;47.692;9.400;2022-12-18T01:28:23;97656.59;;;-4.59;100.00
28927;BME280;16038;47.692;9.400;2022-12-18T01:30:48;97657.09;;;-4.63;100.00
28927;BME280;16038;47.692;9.400;2022-12-18T01:33:14;97670.13;;;-4.83;100.00
28927;BME280;16038;47.692;9.400;2022-12-18T01:35:41;97666.63;;;-5.01;100.00
28927;BME280;16038;47.692;9.400;2022-12-18T01:38:06;97664.63;;;-5.27;100.00
28927;BME280;16038;47.692;9.400;2022-12-18T01:40:32;97664.66;;;-5.39;100.00
28927;BME280;16038;47.692;9.400;2022-12-18T01:42:57;97671.13;;;-5.52;100.00
28927;BME280;16038;47.692;9.400;2022-12-18T01:45:25;97667.88;;;-5.54;100.00
28927;BME280;16038;47.692;9.400;2022-12-18T01:47:55;97664.44;;;-5.66;100.00
28927;BME280;16038;47.692;9.400;2022-12-18T01:50:22;97670.47;;;-5.71;100.00
28927;BME280;16038;47.692;9.400;2022-12-18T01:52:51;97670.78;;;-5.84;100.00
28927;BME280;16038;47.692;9.400;2022-12-18T01:55:21;97674.13;;;-5.89;100.00
28927;BME280;16038;47.692;9.400;2022-12-18T01:57:47;97665.56;;;-5.91;100.00
28927;BME280;16038;47.692;9.400;2022-12-18T02:00:18;97664.19;;;-5.93;100.00
28927;BME280;16038;47.692;9.400;2022-12-18T02:02:46;97665.00;;;-5.93;100.00
28927;BME280;16038;47.692;9.400;2022-12-18T02:05:27;97676.47;;;-5.92;100.00
28927;BME280;16038;47.692;9.400;2022-12-18T02:10:40;97678.91;;;-5.91;100.00
28927;BME280;16038;47.692;9.400;2022-12-18T02:13:27;97686.34;;;-5.93;100.00
28927;BME280;16038;47.692;9.400;2022-12-18T02:16:29;97690.59;;;-5.80;100.00
28927;BME280;16038;47.692;9.400;2022-12-18T02:19:06;97681.09;;;-5.88;100.00
28927;BME280;16038;47.692;9.400;2022-12-18T02:24:36;97678.03;;;-5.97;100.00
28927;BME280;16038;47.692;9.400;2022-12-18T02:27:06;97676.88;;;-6.01;100.00
28927;BME280;16038;47.692;9.400;2022-12-18T02:32:06;97662.13;;;-6.03;100.00
28927;BME280;16038;47.692;9.400;2022-12-18T02:34:36;97665.53;;;-6.08;100.00
28927;BME280;16038;47.692;9.400;2022-12-18T02:37:06;97661.47;;;-6.10;100.00
28927;BME280;16038;47.692;9.400;2022-12-18T02:39:34;97661.97;;;-6.13;100.00
28927;BME280;16038;47.692;9.400;2022-12-18T02:42:01;97663.56;;;-6.12;100.00
28927;BME280;16038;47.692;9.400;2022-12-18T02:44:33;97671.31;;;-6.11;100.00
28927;BME280;16038;47.692;9.400;2022-12-18T02:46:58;97667.63;;;-6.10;100.00
28927;BME280;16038;47.692;9.400;2022-12-18T02:52:05;97666.56;;;-6.09;100.00
28927;BME280;16038;47.692;9.400;2022-12-18T02:54:41;97674.34;;;-6.07;100.00
28927;BME280;16038;47.692;9.400;2022-12-18T02:57:41;97674.81;;;-6.10;100.00
28927;BME280;16038;47.692;9.400;2022-12-18T03:00:19;97674.44;;;-6.02;100.00
28927;BME280;16038;47.692;9.400;2022-12-18T03:05:38;97688.25;;;-6.05;100.00
28927;BME280;16038;47.692;9.400;2022-12-18T03:08:20;97682.69;;;-6.04;100.00
28927;BME280;16038;47.692;9.400;2022-12-18T03:10:49;97681.06;;;-6.05;100.00
28927;BME280;16038;47.692;9.400;2022-12-18T03:13:21;97680.13;;;-6.10;100.00
28927;BME280;16038;47.692;9.400;2022-12-18T03:15:50;97693.38;;;-6.16;100.00
28927;BME280;16038;47.692;9.400;2022-12-18T03:18:22;97683.28;;;-6.13;100.00
28927;BME280;16038;47.692;9.400;2022-12-18T03:20:51;97682.47;;;-6.14;100.00
28927;BME280;16038;47.692;9.400;2022-12-18T03:23:22;97680.13;;;-6.10;100.00
28927;BME280;16038;47.692;9.400;2022-12-18T03:25:51;97670.75;;;-6.13;100.00
28927;BME280;16038;47.692;9.400;2022-12-18T03:28:21;97680.63;;;-6.13;100.00
28927;BME280;16038;47.692;9.400;2022-12-18T03:30:50;97678.19;;;-6.15;100.00
28927;BME280;16038;47.692;9.400;2022-12-18T03:33:24;97681.31;;;-6.18;100.00
28927;BME280;16038;47.692;9.400;2022-12-18T03:35:50;97687.78;;;-6.14;100.00
28927;BME280;16038;47.692;9.400;2022-12-18T03:38:16;97678.88;;;-6.20;100.00
28927;BME280;16038;47.692;9.400;2022-12-18T03:43:34;97681.78;;;-6.21;100.00
28927;BME280;16038;47.692;9.400;2022-12-18T03:46:26;97687.72;;;-6.19;100.00
28927;BME280;16038;47.692;9.400;2022-12-18T03:49:21;97696.75;;;-6.20;100.00
28927;BME280;16038;47.692;9.400;2022-12-18T03:51:53;97701.72;;;-6.24;100.00
28927;BME280;16038;47.692;9.400;2022-12-18T03:54:20;97707.63;;;-6.22;100.00
28927;BME280;16038;47.692;9.400;2022-12-18T03:56:50;97691.06;;;-6.24;100.00
28927;BME280;16038;47.692;9.400;2022-12-18T03:59:19;97699.06;;;-6.24;100.00
28927;BME280;16038;47.692;9.400;2022-12-18T04:01:47;97698.84;;;-6.22;100.00
28927;BME280;16038;47.692;9.400;2022-12-18T04:04:15;97700.09;;;-6.25;100.00
28927;BME280;16038;47.692;9.400;2022-12-18T04:06:42;97708.34;;;-6.26;100.00
28927;BME280;16038;47.692;9.400;2022-12-18T04:09:09;97715.28;;;-6.25;100.00
28927;BME280;16038;47.692;9.400;2022-12-18T04:11:35;97722.84;;;-6.22;100.00
28927;BME280;16038;47.692;9.400;2022-12-18T04:14:01;97710.31;;;-6.22;100.00
28927;BME280;16038;47.692;9.400;2022-12-18T04:16:27;97722.59;;;-6.32;100.00
28927;BME280;16038;47.692;9.400;2022-12-18T04:18:53;97722.59;;;-6.32;100.00
28927;BME280;16038;47.692;9.400;2022-12-18T04:21:19;97724.59;;;-6.28;100.00
28927;BME280;16038;47.692;9.400;2022-12-18T04:23:44;97727.94;;;-6.32;100.00
28927;BME280;16038;47.692;9.400;2022-12-18T04:26:10;97714.97;;;-6.41;100.00
28927;BME280;16038;47.692;9.400;2022-12-18T04:28:35;97722.38;;;-6.43;100.00
28927;BME280;16038;47.692;9.400;2022-12-18T04:31:01;97720.75;;;-6.44;100.00
28927;BME280;16038;47.692;9.400;2022-12-18T04:33:26;97716.69;;;-6.46;100.00
28927;BME280;16038;47.692;9.400;2022-12-18T04:35:52;97715.66;;;-6.45;100.00
28927;BME280;16038;47.692;9.400;2022-12-18T04:38:18;97718.78;;;-6.48;100.00
28927;BME280;16038;47.692;9.400;2022-12-18T04:40:43;97721.22;;;-6.47;100.00
28927;BME280;16038;47.692;9.400;2022-12-18T04:43:09;97717.75;;;-6.47;100.00
28927;BME280;16038;47.692;9.400;2022-12-18T04:45:34;97716.09;;;-6.48;100.00
28927;BME280;16038;47.692;9.400;2022-12-18T04:48:01;97722.28;;;-6.48;100.00
28927;BME280;16038;47.692;9.400;2022-12-18T04:50:27;97721.22;;;-6.47;100.00
28927;BME280;16038;47.692;9.400;2022-12-18T04:52:53;97728.41;;;-6.47;100.00
28927;BME280;16038;47.692;9.400;2022-12-18T04:55:18;97735.34;;;-6.46;100.00
28927;BME280;16038;47.692;9.400;2022-12-18T04:57:44;97731.31;;;-6.49;100.00
28927;BME280;16038;47.692;9.400;2022-12-18T05:00:09;97738.00;;;-6.46;100.00
28927;BME280;16038;47.692;9.400;2022-12-18T05:02:35;97733.63;;;-6.53;100.00
28927;BME280;16038;47.692;9.400;2022-12-18T05:05:01;97739.16;;;-6.54;100.00
28927;BME280;16038;47.692;9.400;2022-12-18T05:07:26;97741.16;;;-6.49;100.00
28927;BME280;16038;47.692;9.400;2022-12-18T05:09:52;97748.09;;;-6.48;100.00
28927;BME280;16038;47.692;9.400;2022-12-18T05:12:17;97752.28;;;-6.53;100.00
28927;BME280;16038;47.692;9.400;2022-12-18T05:14:42;97745.91;;;-6.51;100.00
28927;BME280;16038;47.692;9.400;2022-12-18T05:17:08;97747.16;;;-6.54;100.00
28927;BME280;16038;47.692;9.400;2022-12-18T05:19:33;97736.72;;;-6.56;100.00
28927;BME280;16038;47.692;9.400;2022-12-18T05:21:59;97744.72;;;-6.56;100.00
28927;BME280;16038;47.692;9.400;2022-12-18T05:24:24;97750.06;;;-6.56;100.00
28927;BME280;16038;47.692;9.400;2022-12-18T05:26:49;97753.44;;;-6.60;100.00
28927;BME280;16038;47.692;9.400;2022-12-18T05:29:15;97757.00;;;-6.66;100.00
28927;BME280;16038;47.692;9.400;2022-12-18T05:31:40;97762.09;;;-6.65;100.00
28927;BME280;16038;47.692;9.400;2022-12-18T05:34:06;97756.56;;;-6.63;100.00
28927;BME280;16038;47.692;9.400;2022-12-18T05:36:32;97753.31;;;-6.65;100.00
28927;BME280;16038;47.692;9.400;2022-12-18T05:38:58;97757.00;;;-6.66;100.00
28927;BME280;16038;47.692;9.400;2022-12-18T05:41:23;97760.84;;;-6.62;100.00
28927;BME280;16038;47.692;9.400;2022-12-18T05:43:48;97770.56;;;-6.68;100.00
28927;BME280;16038;47.692;9.400;2022-12-18T05:46:16;97772.97;;;-6.66;100.00
28927;BME280;16038;47.692;9.400;2022-12-18T05:48:43;97765.00;;;-6.66;100.00
28927;BME280;16038;47.692;9.400;2022-12-18T05:51:12;97756.69;;;-6.58;100.00
28927;BME280;16038;47.692;9.400;2022-12-18T05:53:39;97765.59;;;-6.64;100.00
28927;BME280;16038;47.692;9.400;2022-12-18T05:56:07;97770.94;;;-6.64;100.00
28927;BME280;16038;47.692;9.400;2022-12-18T05:58:33;97771.59;;;-6.69;100.00
28927;BME280;16038;47.692;9.400;2022-12-18T06:01:07;97764.63;;;-6.70;100.00
28927;BME280;16038;47.692;9.400;2022-12-18T06:03:33;97769.75;;;-6.68;100.00
28927;BME280;16038;47.692;9.400;2022-12-18T06:05:58;97769.38;;;-6.72;100.00
28927;BME280;16038;47.692;9.400;2022-12-18T06:08:24;97773.69;;;-6.71;100.00
28927;BME280;16038;47.692;9.400;2022-12-18T06:10:50;97774.28;;;-6.69;100.00
28927;BME280;16038;47.692;9.400;2022-12-18T06:13:17;97772.88;;;-6.71;100.00
28927;BME280;16038;47.692;9.400;2022-12-18T06:15:42;97769.75;;;-6.68;100.00
28927;BME280;16038;47.692;9.400;2022-12-18T06:18:07;97774.50;;;-6.70;100.00
28927;BME280;16038;47.692;9.400;2022-12-18T06:20:33;97770.81;;;-6.69;100.00
28927;BME280;16038;47.692;9.400;2022-12-18T06:22:58;97769.97;;;-6.70;100.00
28927;BME280;16038;47.692;9.400;2022-12-18T06:25:24;97770.22;;;-6.71;100.00
28927;BME280;16038;47.692;9.400;2022-12-18T06:27:50;97776.13;;;-6.69;100.00
28927;BME280;16038;47.692;9.400;2022-12-18T06:30:15;97782.63;;;-6.65;100.00
28927;BME280;16038;47.692;9.400;2022-12-18T06:32:40;97781.81;;;-6.66;100.00
28927;BME280;16038;47.692;9.400;2022-12-18T06:35:06;97782.25;;;-6.69;100.00
28927;BME280;16038;47.692;9.400;2022-12-18T06:37:32;97783.28;;;-6.70;100.00
28927;BME280;16038;47.692;9.400;2022-12-18T06:39:57;97793.16;;;-6.70;100.00
28927;BME280;16038;47.692;9.400;2022-12-18T06:42:23;97786.31;;;-6.66;100.00
28927;BME280;16038;47.692;9.400;2022-12-18T06:44:49;97792.13;;;-6.69;100.00
28927;BME280;16038;47.692;9.400;2022-12-18T06:47:14;97790.34;;;-6.76;100.00
28927;BME280;16038;47.692;9.400;2022-12-18T06:49:40;97794.66;;;-6.75;100.00
28927;BME280;16038;47.692;9.400;2022-12-18T06:52:05;97802.41;;;-6.73;100.00
28927;BME280;16038;47.692;9.400;2022-12-18T06:54:30;97804.16;;;-6.67;100.00
28927;BME280;16038;47.692;9.400;2022-12-18T06:56:56;97807.63;;;-6.66;100.00
28927;BME280;16038;47.692;9.400;2022-12-18T06:59:21;97803.59;;;-6.69;100.00
28927;BME280;16038;47.692;9.400;2022-12-18T07:01:47;97809.25;;;-6.65;100.00
28927;BME280;16038;47.692;9.400;2022-12-18T07:04:12;97810.19;;;-6.71;100.00
28927;BME280;16038;47.692;9.400;2022-12-18T07:06:37;97822.22;;;-6.69;100.00
28927;BME280;16038;47.692;9.400;2022-12-18T07:09:03;97817.63;;;-6.62;100.00
28927;BME280;16038;47.692;9.400;2022-12-18T07:11:28;97822.38;;;-6.64;100.00
28927;BME280;16038;47.692;9.400;2022-12-18T07:13:54;97828.28;;;-6.62;100.00
28927;BME280;16038;47.692;9.400;2022-12-18T07:16:20;97828.19;;;-6.55;100.00
28927;BME280;16038;47.692;9.400;2022-12-18T07:18:46;97833.25;;;-6.54;100.00
28927;BME280;16038;47.692;9.400;2022-12-18T07:21:15;97836.06;;;-6.48;100.00
28927;BME280;16038;47.692;9.400;2022-12-18T07:23:41;97843.81;;;-6.47;100.00
28927;BME280;16038;47.692;9.400;2022-12-18T07:26:12;97845.59;;;-6.41;100.00
28927;BME280;16038;47.692;9.400;2022-12-18T07:28:39;97841.28;;;-6.42;100.00
28927;BME280;16038;47.692;9.400;2022-12-18T07:31:09;97848.13;;;-6.34;100.00
28927;BME280;16038;47.692;9.400;2022-12-18T07:33:35;97857.69;;;-6.26;100.00
28927;BME280;16038;47.692;9.400;2022-12-18T07:36:05;97852.69;;;-6.23;100.00
28927;BME280;16038;47.692;9.400;2022-12-18T07:38:32;97853.03;;;-6.31;100.00
28927;BME280;16038;47.692;9.400;2022-12-18T07:41:05;97864.03;;;-6.27;100.00
28927;BME280;16038;47.692;9.400;2022-12-18T07:43:31;97866.03;;;-6.23;100.00
28927;BME280;16038;47.692;9.400;2022-12-18T07:45:57;97871.00;;;-6.15;100.00
28927;BME280;16038;47.692;9.400;2022-12-18T07:48:23;97870.47;;;-6.05;100.00
28927;BME280;16038;47.692;9.400;2022-12-18T07:50:48;97858.03;;;-6.11;100.00
28927;BME280;16038;47.692;9.400;2022-12-18T07:53:14;97860.91;;;-6.24;100.00
28927;BME280;16038;47.692;9.400;2022-12-18T07:55:40;97866.13;;;-6.18;100.00
28927;BME280;16038;47.692;9.400;2022-12-18T07:58:07;97872.41;;;-6.12;100.00
28927;BME280;16038;47.692;9.400;2022-12-18T08:00:33;97869.50;;;-6.10;100.00
28927;BME280;16038;47.692;9.400;2022-12-18T08:02:58;97870.09;;;-6.08;100.00
28927;BME280;16038;47.692;9.400;2022-12-18T08:05:24;97860.47;;;-6.09;100.00
28927;BME280;16038;47.692;9.400;2022-12-18T08:07:50;97866.16;;;-6.06;100.00
28927;BME280;16038;47.692;9.400;2022-12-18T08:10:15;97864.16;;;-6.10;100.00
28927;BME280;16038;47.692;9.400;2022-12-18T08:12:41;97862.91;;;-6.08;100.00
28927;BME280;16038;47.692;9.400;2022-12-18T08:15:06;97862.47;;;-6.05;100.00
28927;BME280;16038;47.692;9.400;2022-12-18T08:17:32;97862.31;;;-5.98;100.00
28927;BME280;16038;47.692;9.400;2022-12-18T08:19:57;97863.00;;;-5.91;100.00
28927;BME280;16038;47.692;9.400;2022-12-18T08:22:23;97874.16;;;-5.94;100.00
28927;BME280;16038;47.692;9.400;2022-12-18T08:24:48;97865.56;;;-5.84;100.00
28927;BME280;16038;47.692;9.400;2022-12-18T08:27:14;97871.47;;;-5.82;100.00
28927;BME280;16038;47.692;9.400;2022-12-18T08:29:39;97871.13;;;-5.74;100.00
28927;BME280;16038;47.692;9.400;2022-12-18T08:32:04;97879.00;;;-5.79;100.00
28927;BME280;16038;47.692;9.400;2022-12-18T08:34:30;97877.28;;;-5.73;100.00
28927;BME280;16038;47.692;9.400;2022-12-18T08:36:55;97870.63;;;-5.71;100.00
28927;BME280;16038;47.692;9.400;2022-12-18T08:39:21;97871.81;;;-5.67;100.00
28927;BME280;16038;47.692;9.400;2022-12-18T08:41:46;97879.94;;;-5.62;100.00
28927;BME280;16038;47.692;9.400;2022-12-18T08:44:32;97874.13;;;-5.59;100.00
28927;BME280;16038;47.692;9.400;2022-12-18T08:47:04;97873.44;;;-5.66;100.00
28927;BME280;16038;47.692;9.400;2022-12-18T08:49:29;97877.16;;;-5.67;100.00
28927;BME280;16038;47.692;9.400;2022-12-18T08:51:56;97877.28;;;-5.73;100.00
28927;BME280;16038;47.692;9.400;2022-12-18T08:54:25;97885.97;;;-5.66;100.00
28927;BME280;16038;47.692;9.400;2022-12-18T08:56:51;97882.13;;;-5.59;100.00
28927;BME280;16038;47.692;9.400;2022-12-18T08:59:18;97888.03;;;-5.57;100.00
28927;BME280;16038;47.692;9.400;2022-12-18T09:01:44;97886.56;;;-5.52;100.00
28927;BME280;16038;47.692;9.400;2022-12-18T09:04:10;97891.41;;;-5.38;100.00
28927;BME280;16038;47.692;9.400;2022-12-18T09:06:35;97891.84;;;-5.29;100.00
28927;BME280;16038;47.692;9.400;2022-12-18T09:09:02;97898.91;;;-5.23;100.00
28927;BME280;16038;47.692;9.400;2022-12-18T09:11:28;97895.66;;;-5.25;100.00
28927;BME280;16038;47.692;9.400;2022-12-18T09:13:55;97886.75;;;-5.42;100.00
28927;BME280;16038;47.692;9.400;2022-12-18T09:16:22;97881.66;;;-5.44;100.00
28927;BME280;16038;47.692;9.400;2022-12-18T09:18:48;97881.78;;;-5.50;100.00
28927;BME280;16038;47.692;9.400;2022-12-18T09:21:18;97878.38;;;-5.34;100.00
28927;BME280;16038;47.692;9.400;2022-12-18T09:23:51;97872.38;;;-5.41;100.00
28927;BME280;16038;47.692;9.400;2022-12-18T09:26:16;97868.44;;;-5.50;100.00
28927;BME280;16038;47.692;9.400;2022-12-18T09:28:43;97872.81;;;-5.44;100.00
28927;BME280;16038;47.692;9.400;2022-12-18T09:31:11;97880.25;;;-5.34;100.00
28927;BME280;16038;47.692;9.400;2022-12-18T09:33:37;97879.31;;;-5.28;100.00
28927;BME280;16038;47.692;9.400;2022-12-18T09:36:04;97876.16;;;-5.25;100.00
28927;BME280;16038;47.692;9.400;2022-12-18T09:38:31;97866.53;;;-5.26;100.00
28927;BME280;16038;47.692;9.400;2022-12-18T09:43:59;97859.56;;;-5.27;100.00
28927;BME280;16038;47.692;9.400;2022-12-18T09:46:32;97863.41;;;-5.35;100.00
28927;BME280;16038;47.692;9.400;2022-12-18T09:49:03;97869.56;;;-5.34;100.00
28927;BME280;16038;47.692;9.400;2022-12-18T09:51:51;97870.03;;;-5.26;100.00
28927;BME280;16038;47.692;9.400;2022-12-18T09:54:35;97868.31;;;-5.03;100.00
28927;BME280;16038;47.692;9.400;2022-12-18T09:57:02;97868.31;;;-5.03;100.00
28927;BME280;16038;47.692;9.400;2022-12-18T09:59:38;97868.66;;;-5.00;100.00
28927;BME280;16038;47.692;9.400;2022-12-18T10:02:22;97878.34;;;-4.82;100.00
28927;BME280;16038;47.692;9.400;2022-12-18T10:05:13;97877.06;;;-4.79;100.00
28927;BME280;16038;47.692;9.400;2022-12-18T10:08:17;97865.13;;;-4.88;100.00
28927;BME280;16038;47.692;9.400;2022-12-18T10:10:48;97862.09;;;-4.80;100.00
28927;BME280;16038;47.692;9.400;2022-12-18T10:13:25;97866.91;;;-4.65;100.00
28927;BME280;16038;47.692;9.400;2022-12-18T10:16:03;97874.59;;;-4.69;100.00
28927;BME280;16038;47.692;9.400;2022-12-18T10:18:51;97867.19;;;-4.78;100.00
28927;BME280;16038;47.692;9.400;2022-12-18T10:21:25;97867.66;;;-4.82;100.00
28927;BME280;16038;47.692;9.400;2022-12-18T10:26:37;97868.19;;;-4.68;100.00
28927;BME280;16038;47.692;9.400;2022-12-18T10:29:09;97867.53;;;-4.75;100.00
28927;BME280;16038;47.692;9.400;2022-12-18T10:31:37;97868.97;;;-4.55;100.00
28927;BME280;16038;47.692;9.400;2022-12-18T10:34:02;97868.41;;;-4.40;100.00
28927;BME280;16038;47.692;9.400;2022-12-18T10:36:28;97869.56;;;-4.65;100.00
28927;BME280;16038;47.692;9.400;2022-12-18T10:39:14;97871.44;;;-4.66;100.00
28927;BME280;16038;47.692;9.400;2022-12-18T10:41:40;97872.78;;;-4.51;100.00
28927;BME280;16038;47.692;9.400;2022-12-18T10:46:45;97869.94;;;-4.45;100.00
28927;BME280;16038;47.692;9.400;2022-12-18T10:49:26;97872.19;;;-4.53;100.00
28927;BME280;16038;47.692;9.400;2022-12-18T10:52:07;97859.00;;;-4.72;100.00
28927;BME280;16038;47.692;9.400;2022-12-18T10:54:38;97871.53;;;-4.61;100.00
28927;BME280;16038;47.692;9.400;2022-12-18T10:59:55;97871.88;;;-4.57;100.00
28927;BME280;16038;47.692;9.400;2022-12-18T11:02:36;97870.81;;;-4.56;100.00
28927;BME280;16038;47.692;9.400;2022-12-18T11:05:20;97870.53;;;-4.43;100.00
28927;BME280;16038;47.692;9.400;2022-12-18T11:07:49;97871.31;;;-4.42;100.00
28927;BME280;16038;47.692;9.400;2022-12-18T11:10:17;97872.91;;;-4.58;100.00
28927;BME280;16038;47.692;9.400;2022-12-18T11:12:43;97867.00;;;-4.60;100.00
28927;BME280;16038;47.692;9.400;2022-12-18T11:15:19;97869.72;;;-4.72;100.00
28927;BME280;16038;47.692;9.400;2022-12-18T11:17:48;97865.63;;;-4.63;100.00
28927;BME280;16038;47.692;9.400;2022-12-18T11:20:26;97874.22;;;-4.61;100.00
28927;BME280;16038;47.692;9.400;2022-12-18T11:22:57;97872.38;;;-4.43;100.00
28927;BME280;16038;47.692;9.400;2022-12-18T11:25:24;97873.19;;;-4.43;100.00
28927;BME280;16038;47.692;9.400;2022-12-18T11:27:55;97869.63;;;-4.31;100.00
28927;BME280;16038;47.692;9.400;2022-12-18T11:30:32;97861.94;;;-4.45;100.00
28927;BME280;16038;47.692;9.400;2022-12-18T11:35:57;97859.16;;;-4.50;100.00
28927;BME280;16038;47.692;9.400;2022-12-18T11:38:31;97841.72;;;-4.52;100.00
28927;BME280;16038;47.692;9.400;2022-12-18T11:46:08;97856.59;;;-4.28;100.00
28927;BME280;16038;47.692;9.400;2022-12-18T11:48:41;97839.56;;;-4.22;100.00
28927;BME280;16038;47.692;9.400;2022-12-18T11:51:25;97847.34;;;-4.03;100.00
28927;BME280;16038;47.692;9.400;2022-12-18T11:53:51;97837.63;;;-4.26;100.00
28927;BME280;16038;47.692;9.400;2022-12-18T11:56:32;97839.22;;;-4.25;100.00
28927;BME280;16038;47.692;9.400;2022-12-18T12:04:43;97818.66;;;-4.25;100.00
28927;BME280;16038;47.692;9.400;2022-12-18T12:12:22;97828.34;;;-3.85;100.00
28927;BME280;16038;47.692;9.400;2022-12-18T12:15:16;97824.59;;;-3.84;100.00
28927;BME280;16038;47.692;9.400;2022-12-18T12:17:55;97822.19;;;-3.85;100.00
28927;BME280;16038;47.692;9.400;2022-12-18T12:20:45;97819.31;;;-3.78;100.00
28927;BME280;16038;47.692;9.400;2022-12-18T12:25:49;97806.50;;;-4.15;100.00
28927;BME280;16038;47.692;9.400;2022-12-18T12:28:26;97808.84;;;-4.19;100.00
28927;BME280;16038;47.692;9.400;2022-12-18T12:33:56;97810.63;;;-4.25;100.00
28927;BME280;16038;47.692;9.400;2022-12-18T12:38:59;97806.97;;;-4.35;100.00
28927;BME280;16038;47.692;9.400;2022-12-18T12:41:27;97806.56;;;-4.27;100.00
28927;BME280;16038;47.692;9.400;2022-12-18T12:44:19;97807.97;;;-4.25;100.00
28927;BME280;16038;47.692;9.400;2022-12-18T12:46:46;97796.50;;;-4.20;100.00
28927;BME280;16038;47.692;9.400;2022-12-18T12:49:18;97798.31;;;-4.09;100.00
28927;BME280;16038;47.692;9.400;2022-12-18T12:51:56;97797.97;;;-4.29;100.00
28927;BME280;16038;47.692;9.400;2022-12-18T12:54:25;97778.28;;;-4.40;100.00
28927;BME280;16038;47.692;9.400;2022-12-18T12:59:37;97769.78;;;-4.37;100.00
28927;BME280;16038;47.692;9.400;2022-12-18T13:08:22;97776.56;;;-4.29;100.00
28927;BME280;16038;47.692;9.400;2022-12-18T13:10:43;97791.41;;;-4.22;100.00
28927;BME280;16038;47.692;9.400;2022-12-18T13:13:13;97790.44;;;-4.15;100.00
28927;BME280;16038;47.692;9.400;2022-12-18T13:15:45;97794.00;;;-4.10;100.00
28927;BME280;16038;47.692;9.400;2022-12-18T13:21:07;97797.41;;;-4.31;100.00
28927;BME280;16038;47.692;9.400;2022-12-18T13:23:35;97787.28;;;-4.29;100.00
28927;BME280;16038;47.692;9.400;2022-12-18T13:31:13;97801.22;;;-4.44;100.00
28927;BME280;16038;47.692;9.400;2022-12-18T13:33:44;97794.81;;;-4.43;100.00
28927;BME280;16038;47.692;9.400;2022-12-18T13:36:30;97788.34;;;-4.30;100.00
28927;BME280;16038;47.692;9.400;2022-12-18T13:41:44;97776.97;;;-4.20;100.00
28927;BME280;16038;47.692;9.400;2022-12-18T13:46:51;97796.19;;;-4.07;100.00
28927;BME280;16038;47.692;9.400;2022-12-18T13:49:43;97804.06;;;-4.17;100.00
28927;BME280;16038;47.692;9.400;2022-12-18T13:52:18;97800.16;;;-4.26;100.00
28927;BME280;16038;47.692;9.400;2022-12-18T13:54:48;97791.06;;;-4.25;100.00
28927;BME280;16038;47.692;9.400;2022-12-18T13:57:33;97794.88;;;-4.38;100.00
28927;BME280;16038;47.692;9.400;2022-12-18T14:02:44;97802.69;;;-4.19;100.00
28927;BME280;16038;47.692;9.400;2022-12-18T14:07:54;97803.47;;;-4.02;100.00
28927;BME280;16038;47.692;9.400;2022-12-18T14:10:21;97788.56;;;-3.98;100.00
28927;BME280;16038;47.692;9.400;2022-12-18T14:12:48;97787.19;;;-4.17;100.00
28927;BME280;16038;47.692;9.400;2022-12-18T14:15:31;97799.38;;;-4.27;100.00
28927;BME280;16038;47.692;9.400;2022-12-18T14:18:07;97792.53;;;-4.34;100.00
28927;BME280;16038;47.692;9.400;2022-12-18T14:20:41;97796.94;;;-4.28;100.00
28927;BME280;16038;47.692;9.400;2022-12-18T14:23:31;97800.00;;;-4.19;100.00